createdAt,value
2023-05-11T00:02:05.924Z,7.40
2023-05-11T00:04:32.983Z,8.32
2023-05-11T00:07:00.021Z,5.05
2023-05-11T00:09:27.030Z,10.20
2023-05-11T00:11:53.987Z,8.98
2023-05-11T00:14:22.291Z,8.68
2023-05-11T00:16:49.353Z,9.13
2023-05-11T00:19:16.507Z,8.93
2023-05-11T00:21:43.410Z,7.78
2023-05-11T00:24:10.518Z,7.63
2023-05-11T00:26:37.478Z,9.05
2023-05-11T00:29:04.404Z,9.00
2023-05-11T00:31:32.774Z,10.65
2023-05-11T00:33:59.748Z,11.63
2023-05-11T00:36:26.690Z,7.38
2023-05-11T00:38:53.710Z,9.00
2023-05-11T00:41:21.704Z,10.82
2023-05-11T00:43:48.716Z,11.45
2023-05-11T00:46:15.725Z,9.50
2023-05-11T00:48:44.392Z,8.25
2023-05-11T00:51:12.342Z,10.00
2023-05-11T00:53:39.390Z,9.90
2023-05-11T00:56:06.896Z,8.60
2023-05-11T00:58:33.796Z,8.52
2023-05-11T01:01:00.868Z,10.10
2023-05-11T01:03:27.935Z,9.18
2023-05-11T01:06:03.067Z,8.20
2023-05-11T01:08:33.772Z,8.50
2023-05-11T01:11:07.717Z,8.50
2023-05-11T01:13:39.191Z,8.20
2023-05-11T01:16:12.304Z,7.93
2023-05-11T01:18:52.255Z,7.70
2023-05-11T01:21:21.653Z,8.93
2023-05-11T01:24:05.194Z,9.88
2023-05-11T01:26:48.331Z,8.43
2023-05-11T01:29:41.694Z,8.00
2023-05-11T01:32:15.973Z,6.28
2023-05-11T01:34:44.101Z,6.35
2023-05-11T01:37:15.671Z,9.30
2023-05-11T01:39:49.750Z,7.82
2023-05-11T01:42:19.442Z,6.57
2023-05-11T01:44:48.976Z,6.82
2023-05-11T01:47:17.769Z,5.18
2023-05-11T01:49:45.946Z,6.72
2023-05-11T01:52:14.166Z,5.63
2023-05-11T01:54:43.616Z,6.50
2023-05-11T01:57:12.609Z,8.88
2023-05-11T01:59:40.767Z,5.75
2023-05-11T02:02:08.675Z,5.07
2023-05-11T02:04:37.766Z,6.15
2023-05-11T02:07:05.200Z,5.88
2023-05-11T02:09:33.846Z,5.28
2023-05-11T02:12:02.159Z,5.57
2023-05-11T02:14:34.290Z,8.45
2023-05-11T02:17:02.686Z,6.85
2023-05-11T02:19:30.315Z,6.50
2023-05-11T02:21:59.509Z,5.95
2023-05-11T02:24:28.744Z,7.90
2023-05-11T02:26:55.916Z,7.30
2023-05-11T02:29:23.612Z,6.05
2023-05-11T02:31:53.188Z,6.05
2023-05-11T02:34:24.598Z,5.90
2023-05-11T02:36:54.480Z,7.63
2023-05-11T02:39:24.573Z,7.07
2023-05-11T02:41:57.410Z,5.22
2023-05-11T02:44:29.000Z,6.30
2023-05-11T02:46:57.106Z,5.78
2023-05-11T02:49:25.784Z,5.50
2023-05-11T02:51:53.889Z,6.75
2023-05-11T02:54:20.908Z,5.18
2023-05-11T02:56:52.775Z,7.00
2023-05-11T02:59:20.271Z,6.22
2023-05-11T03:01:47.848Z,8.85
2023-05-11T03:04:15.115Z,6.68
2023-05-11T03:06:42.101Z,5.57
2023-05-11T03:09:10.416Z,7.45
2023-05-11T03:11:42.775Z,6.30
2023-05-11T03:14:11.920Z,6.32
2023-05-11T03:16:39.485Z,6.47
2023-05-11T03:19:07.668Z,6.07
2023-05-11T03:21:34.872Z,9.18
2023-05-11T03:24:02.094Z,7.30
2023-05-11T03:26:33.772Z,6.35
2023-05-11T03:29:01.356Z,6.20
2023-05-11T03:31:29.888Z,8.82
2023-05-11T03:33:58.950Z,7.47
2023-05-11T03:36:27.031Z,8.20
2023-05-11T03:38:56.697Z,7.35
2023-05-11T03:41:26.049Z,7.35
2023-05-11T03:43:55.497Z,6.88
2023-05-11T03:46:23.966Z,6.47
2023-05-11T03:48:53.020Z,7.10
2023-05-11T03:51:23.968Z,6.13
2023-05-11T03:53:50.858Z,6.57
2023-05-11T03:56:17.991Z,8.20
2023-05-11T03:58:44.934Z,7.93
2023-05-11T04:01:13.119Z,7.80
2023-05-11T04:03:48.685Z,7.50
2023-05-11T04:06:17.533Z,9.98
2023-05-11T04:08:45.893Z,9.02
2023-05-11T04:11:12.847Z,6.65
2023-05-11T04:13:39.891Z,6.20
2023-05-11T04:16:07.914Z,8.10
2023-05-11T04:18:34.997Z,6.85
2023-05-11T04:21:01.945Z,8.75
2023-05-11T04:23:30.279Z,7.28
2023-05-11T04:25:58.913Z,6.57
2023-05-11T04:28:27.970Z,6.70
2023-05-11T04:30:55.523Z,8.55
2023-05-11T04:33:23.057Z,8.63
2023-05-11T04:35:51.258Z,8.82
2023-05-11T04:38:18.214Z,8.85
2023-05-11T04:40:47.963Z,7.93
2023-05-11T04:43:16.049Z,9.35
2023-05-11T04:45:47.721Z,7.50
2023-05-11T04:48:17.392Z,10.00
2023-05-11T04:50:46.736Z,8.77
2023-05-11T04:53:14.699Z,9.05
2023-05-11T04:55:41.702Z,10.05
2023-05-11T04:58:10.806Z,9.02
2023-05-11T05:00:38.052Z,11.57
2023-05-11T05:03:04.982Z,11.15
2023-05-11T05:05:32.853Z,13.57
2023-05-11T05:07:59.855Z,10.13
2023-05-11T05:10:26.802Z,11.70
2023-05-11T05:12:53.815Z,11.70
2023-05-11T05:15:22.252Z,11.82
2023-05-11T05:17:49.256Z,11.25
2023-05-11T05:20:16.996Z,11.52
2023-05-11T05:22:44.087Z,9.23
2023-05-11T05:25:12.086Z,13.25
2023-05-11T05:27:39.067Z,10.98
2023-05-11T05:30:09.643Z,9.65
2023-05-11T05:32:38.094Z,11.88
2023-05-11T05:35:06.069Z,10.57
2023-05-11T05:37:32.984Z,12.23
2023-05-11T05:40:00.367Z,10.73
2023-05-11T05:42:27.394Z,10.75
2023-05-11T05:44:54.328Z,8.38
2023-05-11T05:47:22.353Z,7.00
2023-05-11T05:49:50.705Z,9.90
2023-05-11T05:52:17.683Z,8.52
2023-05-11T05:54:47.127Z,11.70
2023-05-11T05:57:15.775Z,7.63
2023-05-11T05:59:44.242Z,12.50
2023-05-11T06:02:13.522Z,11.50
2023-05-11T06:04:42.066Z,9.55
2023-05-11T06:07:10.848Z,10.05
2023-05-11T06:09:39.126Z,10.27
2023-05-11T06:12:07.264Z,10.65
2023-05-11T06:14:36.761Z,9.13
2023-05-11T06:17:03.714Z,8.73
2023-05-11T06:19:30.773Z,9.05
2023-05-11T06:21:58.403Z,10.77
2023-05-11T06:24:26.989Z,14.20
2023-05-11T06:26:55.148Z,9.48
2023-05-11T06:29:22.445Z,12.00
2023-05-11T06:31:52.960Z,10.65
2023-05-11T06:34:20.829Z,11.30
2023-05-11T06:36:48.068Z,11.65
2023-05-11T06:39:15.148Z,11.30
2023-05-11T06:41:43.524Z,9.52
2023-05-11T06:44:10.554Z,11.30
2023-05-11T06:46:38.400Z,10.82
2023-05-11T06:49:05.381Z,10.98
2023-05-11T06:51:32.299Z,10.30
2023-05-11T06:53:59.688Z,9.95
2023-05-11T06:56:27.793Z,10.60
2023-05-11T06:58:56.382Z,22.17
2023-05-11T07:03:52.580Z,11.27
2023-05-11T07:06:21.444Z,11.95
2023-05-11T07:08:48.447Z,10.65
2023-05-11T07:11:15.863Z,13.43
2023-05-11T07:13:42.796Z,9.18
2023-05-11T07:16:11.076Z,10.32
2023-05-11T07:18:38.239Z,10.32
2023-05-11T07:21:05.683Z,11.60
2023-05-11T07:23:32.627Z,11.10
2023-05-11T07:25:59.640Z,10.27
2023-05-11T07:28:26.509Z,9.18
2023-05-11T07:30:53.418Z,10.65
2023-05-11T07:33:21.893Z,11.75
2023-05-11T07:35:48.806Z,9.90
2023-05-11T07:38:15.741Z,10.25
2023-05-11T07:40:42.671Z,14.90
2023-05-11T07:43:09.878Z,11.88
2023-05-11T07:45:37.243Z,9.13
2023-05-11T07:48:04.220Z,9.38
2023-05-11T07:50:32.596Z,8.13
2023-05-11T07:52:59.508Z,11.73
2023-05-11T07:55:26.495Z,9.48
2023-05-11T07:57:54.345Z,10.27
2023-05-11T08:00:21.994Z,12.38
2023-05-11T08:02:48.987Z,9.70
2023-05-11T08:05:17.084Z,10.13
2023-05-11T08:07:45.676Z,9.38
2023-05-11T08:10:12.934Z,11.40
2023-05-11T08:12:39.872Z,7.90
2023-05-11T08:15:07.627Z,8.85
2023-05-11T08:17:34.742Z,8.45
2023-05-11T08:20:01.911Z,15.50
2023-05-11T08:22:28.916Z,11.15
2023-05-11T08:24:57.242Z,11.98
2023-05-11T08:27:24.235Z,10.65
2023-05-11T08:29:51.416Z,8.27
2023-05-11T08:32:18.373Z,8.88
2023-05-11T08:34:45.543Z,9.48
2023-05-11T08:37:12.645Z,10.73
2023-05-11T08:39:47.180Z,11.15
2023-05-11T08:44:44.339Z,10.77
2023-05-11T08:47:22.505Z,7.90
2023-05-11T08:49:51.201Z,11.75
2023-05-11T08:52:18.770Z,11.00
2023-05-11T08:54:46.130Z,9.70
2023-05-11T08:57:15.185Z,10.52
2023-05-11T08:59:42.615Z,9.15
2023-05-11T09:02:11.424Z,13.75
2023-05-11T09:04:38.581Z,8.70
2023-05-11T09:07:05.621Z,7.28
2023-05-11T09:09:32.790Z,9.82
2023-05-11T09:11:59.889Z,8.05
2023-05-11T09:14:29.743Z,6.95
2023-05-11T09:16:58.868Z,5.60
2023-05-11T09:19:27.022Z,8.80
2023-05-11T09:21:53.996Z,7.53
2023-05-11T09:24:21.226Z,7.20
2023-05-11T09:26:48.513Z,7.20
2023-05-11T09:29:19.627Z,7.57
2023-05-11T09:31:48.082Z,6.15
2023-05-11T09:34:16.779Z,7.00
2023-05-11T09:36:44.486Z,6.22
2023-05-11T09:41:42.272Z,5.57
2023-05-11T09:44:12.386Z,4.72
2023-05-11T09:46:40.229Z,5.40
2023-05-11T09:49:08.885Z,5.07
2023-05-11T09:51:37.157Z,5.35
2023-05-11T09:56:46.359Z,6.78
2023-05-11T09:59:15.470Z,5.50
2023-05-11T10:01:42.511Z,5.78
2023-05-11T10:04:22.185Z,6.30
2023-05-11T10:06:53.574Z,4.85
2023-05-11T10:09:24.657Z,5.60
2023-05-11T10:11:53.725Z,4.90
2023-05-11T10:14:21.939Z,6.20
2023-05-11T10:16:49.108Z,4.95
2023-05-11T10:19:17.600Z,5.88
2023-05-11T10:21:45.083Z,4.97
2023-05-11T10:24:13.866Z,4.82
2023-05-11T10:26:41.069Z,8.15
2023-05-11T10:29:08.156Z,4.80
2023-05-11T10:31:35.598Z,5.35
2023-05-11T10:34:04.186Z,4.75
2023-05-11T10:39:00.165Z,7.35
2023-05-11T10:41:40.132Z,7.35
2023-05-11T10:44:25.680Z,5.25
2023-05-11T10:47:04.400Z,5.35
2023-05-11T10:49:54.740Z,4.70
2023-05-11T10:52:39.193Z,4.28
2023-05-11T10:55:10.315Z,5.05
2023-05-11T10:57:51.701Z,3.95
2023-05-11T11:01:06.265Z,3.20
2023-05-11T11:03:33.393Z,4.78
2023-05-11T11:06:01.109Z,5.13
2023-05-11T11:08:29.927Z,3.75
2023-05-11T11:10:56.930Z,5.05
2023-05-11T11:13:24.518Z,5.70
2023-05-11T11:16:16.166Z,4.72
2023-05-11T11:18:43.718Z,4.25
2023-05-11T11:21:15.657Z,4.25
2023-05-11T11:23:50.054Z,4.93
2023-05-11T11:26:38.611Z,5.03
2023-05-11T11:29:08.913Z,5.45
2023-05-11T11:31:36.757Z,4.75
2023-05-11T11:34:32.400Z,6.38
2023-05-11T11:37:08.665Z,5.32
2023-05-11T11:40:08.963Z,4.43
2023-05-11T11:42:44.285Z,3.90
2023-05-11T11:45:38.950Z,4.70
2023-05-11T11:48:16.267Z,7.45
2023-05-11T11:50:48.024Z,4.28
2023-05-11T11:53:48.175Z,5.10
2023-05-11T11:56:44.894Z,4.25
2023-05-11T11:59:14.076Z,6.13
2023-05-11T12:01:43.243Z,9.82
2023-05-11T12:04:44.863Z,6.93
2023-05-11T12:07:13.333Z,7.53
2023-05-11T12:09:41.214Z,6.93
2023-05-11T12:12:10.449Z,6.65
2023-05-11T12:14:39.393Z,6.15
2023-05-11T12:17:15.503Z,6.75
2023-05-11T12:19:43.883Z,7.38
2023-05-11T12:22:13.943Z,5.68
2023-05-11T12:24:41.462Z,8.05
2023-05-11T12:27:09.908Z,10.43
2023-05-11T12:32:03.990Z,6.80
2023-05-11T12:34:31.006Z,4.28
2023-05-11T12:37:00.484Z,5.45
2023-05-11T12:39:28.152Z,6.75
2023-05-11T12:41:56.431Z,6.63
2023-05-11T12:46:52.732Z,3.88
2023-05-11T12:51:52.592Z,7.97
2023-05-11T12:54:27.585Z,11.10
2023-05-11T12:56:55.019Z,8.10
2023-05-11T12:59:31.737Z,9.63
2023-05-11T13:02:13.586Z,6.78
2023-05-11T13:04:42.540Z,10.15
2023-05-11T13:07:10.162Z,6.55
2023-05-11T13:09:37.281Z,12.77
2023-05-11T13:12:11.372Z,5.93
2023-05-11T13:14:39.907Z,7.32
2023-05-11T13:19:33.957Z,7.35
2023-05-11T13:22:01.062Z,7.40
2023-05-11T13:24:28.307Z,7.30
2023-05-11T13:26:56.404Z,7.20
2023-05-11T13:29:23.464Z,8.10
2023-05-11T13:31:52.794Z,6.88
2023-05-11T13:34:20.447Z,7.00
2023-05-11T13:36:47.535Z,6.85
2023-05-11T13:39:14.404Z,7.43
2023-05-11T13:41:41.356Z,7.55
2023-05-11T13:44:08.333Z,8.70
2023-05-11T13:46:35.624Z,7.38
2023-05-11T13:49:04.782Z,9.10
2023-05-11T13:51:32.297Z,9.13
2023-05-11T13:54:01.023Z,7.28
2023-05-11T13:56:28.272Z,7.13
2023-05-11T13:58:56.669Z,5.88
2023-05-11T14:01:25.214Z,6.30
2023-05-11T14:03:56.754Z,3.97
2023-05-11T14:06:25.697Z,6.85
2023-05-11T14:08:53.548Z,9.95
2023-05-11T14:11:21.511Z,4.82
2023-05-11T14:13:49.090Z,10.68
2023-05-11T14:16:16.067Z,5.72
2023-05-11T14:18:43.259Z,6.47
2023-05-11T14:21:10.903Z,8.25
2023-05-11T14:23:43.159Z,5.63
2023-05-11T14:26:14.421Z,5.72
2023-05-11T14:28:41.478Z,7.97
2023-05-11T14:31:08.827Z,7.80
2023-05-11T14:33:35.843Z,4.40
2023-05-11T14:36:03.732Z,4.88
2023-05-11T14:38:31.823Z,6.05
2023-05-11T14:41:02.050Z,9.18
2023-05-11T14:43:28.949Z,4.68
2023-05-11T14:45:56.061Z,5.93
2023-05-11T14:48:23.198Z,5.78
2023-05-11T14:50:50.212Z,7.15
2023-05-11T14:53:17.162Z,5.07
2023-05-11T14:55:44.112Z,5.35
2023-05-11T14:58:12.390Z,6.70
2023-05-11T15:00:40.416Z,6.82
2023-05-11T15:03:07.939Z,4.78
2023-05-11T15:05:35.009Z,4.28
2023-05-11T15:08:01.958Z,3.88
2023-05-11T15:10:28.928Z,5.43
2023-05-11T15:12:55.944Z,3.53
2023-05-11T15:15:24.728Z,2.88
2023-05-11T15:17:51.723Z,4.88
2023-05-11T15:20:18.853Z,5.55
2023-05-11T15:22:45.884Z,4.55
2023-05-11T15:25:12.977Z,6.28
2023-05-11T15:27:39.999Z,4.57
2023-05-11T15:30:08.104Z,5.70
2023-05-11T15:32:36.680Z,4.50
2023-05-11T15:35:04.157Z,4.40
2023-05-11T15:37:31.160Z,4.93
2023-05-11T15:39:58.242Z,5.60
2023-05-11T15:42:25.172Z,3.45
2023-05-11T15:44:52.182Z,5.97
2023-05-11T15:47:19.138Z,3.47
2023-05-11T15:49:47.396Z,5.28
2023-05-11T15:52:14.315Z,3.30
2023-05-11T15:54:41.211Z,6.07
2023-05-11T15:57:08.384Z,4.70
2023-05-11T15:59:35.292Z,6.28
2023-05-11T16:02:02.233Z,4.57
2023-05-11T16:04:29.177Z,5.45
2023-05-11T16:06:58.868Z,5.65
2023-05-11T16:09:26.104Z,5.47
2023-05-11T16:11:52.997Z,5.00
2023-05-11T16:14:19.887Z,6.60
2023-05-11T16:16:46.826Z,3.83
2023-05-11T16:19:13.819Z,2.47
2023-05-11T16:21:40.775Z,4.07
2023-05-11T16:24:09.272Z,2.60
2023-05-11T16:29:03.048Z,3.80
2023-05-11T16:31:30.070Z,6.15
2023-05-11T16:33:57.221Z,3.28
2023-05-11T16:36:24.072Z,4.45
2023-05-11T16:38:51.020Z,4.82
2023-05-11T16:41:19.369Z,5.57
2023-05-11T16:43:46.438Z,3.30
2023-05-11T16:46:13.643Z,3.83
2023-05-11T16:48:40.707Z,2.92
2023-05-11T16:51:07.581Z,4.20
2023-05-11T16:53:34.526Z,3.70
2023-05-11T16:56:01.591Z,5.18
2023-05-11T16:58:31.066Z,3.20
2023-05-11T17:00:59.359Z,3.90
2023-05-11T17:03:27.001Z,6.32
2023-05-11T17:05:54.030Z,4.65
2023-05-11T17:08:21.113Z,3.60
2023-05-11T17:10:48.035Z,4.25
2023-05-11T17:13:15.047Z,3.92
2023-05-11T17:15:43.452Z,4.00
2023-05-11T17:18:10.392Z,3.10
2023-05-11T17:20:37.520Z,4.65
2023-05-11T17:23:04.792Z,3.25
2023-05-11T17:25:31.833Z,4.90
2023-05-11T17:27:58.799Z,10.40
2023-05-11T17:30:36.390Z,3.75
2023-05-11T17:33:14.843Z,7.88
2023-05-11T17:35:41.980Z,4.43
2023-05-11T17:38:08.895Z,4.10
2023-05-11T17:40:36.114Z,4.88
2023-05-11T17:43:03.098Z,3.03
2023-05-11T17:45:30.071Z,3.90
2023-05-11T17:47:57.341Z,4.20
2023-05-11T17:50:25.774Z,3.38
2023-05-11T17:52:53.229Z,5.10
2023-05-11T17:55:20.366Z,4.90
2023-05-11T17:57:48.388Z,5.82
2023-05-11T18:00:16.259Z,5.88
2023-05-11T18:02:43.287Z,4.00
2023-05-11T18:05:10.287Z,3.15
2023-05-11T18:07:38.580Z,3.13
2023-05-11T18:10:06.567Z,4.03
2023-05-11T18:12:33.558Z,3.95
2023-05-11T18:15:00.652Z,3.17
2023-05-11T18:17:27.662Z,3.53
2023-05-11T18:19:54.544Z,8.90
2023-05-11T18:22:22.906Z,3.70
2023-05-11T18:24:51.309Z,5.30
2023-05-11T18:27:18.590Z,4.03
2023-05-11T18:29:45.577Z,7.72
2023-05-11T18:32:12.546Z,3.50
2023-05-11T18:34:42.550Z,4.45
2023-05-11T18:37:09.755Z,4.45
2023-05-11T18:39:36.669Z,2.72
2023-05-11T18:42:06.365Z,3.88
2023-05-11T18:44:34.546Z,3.97
2023-05-11T18:47:01.740Z,3.78
2023-05-11T18:49:28.866Z,5.53
2023-05-11T18:51:55.828Z,4.60
2023-05-11T18:54:22.746Z,3.50
2023-05-11T18:56:49.744Z,4.07
2023-05-11T18:59:18.356Z,4.72
2023-05-11T19:04:19.717Z,6.70
2023-05-11T19:06:47.016Z,3.40
2023-05-11T19:09:14.134Z,3.30
2023-05-11T19:11:41.699Z,3.42
2023-05-11T19:14:10.387Z,4.35
2023-05-11T19:16:39.182Z,3.20
2023-05-11T19:19:06.283Z,3.05
2023-05-11T19:21:35.460Z,4.90
2023-05-11T19:24:02.392Z,3.40
2023-05-11T19:26:29.600Z,4.90
2023-05-11T19:28:56.578Z,3.17
2023-05-11T19:31:25.307Z,4.05
2023-05-11T19:33:53.733Z,3.92
2023-05-11T19:36:20.645Z,4.90
2023-05-11T19:38:47.585Z,4.28
2023-05-11T19:41:14.515Z,5.97
2023-05-11T19:43:41.460Z,3.85
2023-05-11T19:46:08.635Z,4.55
2023-05-11T19:48:36.123Z,3.88
2023-05-11T19:51:04.433Z,3.78
2023-05-11T19:53:31.385Z,3.58
2023-05-11T19:55:58.443Z,5.75
2023-05-11T19:58:25.541Z,4.85
2023-05-11T20:00:52.537Z,6.40
2023-05-11T20:03:19.619Z,7.72
2023-05-11T20:05:46.754Z,8.43
2023-05-11T20:08:15.186Z,4.25
2023-05-11T20:13:08.889Z,6.10
2023-05-11T20:15:36.115Z,4.45
2023-05-11T20:18:03.357Z,5.05
2023-05-11T20:20:30.834Z,5.57
2023-05-11T20:22:58.211Z,6.30
2023-05-11T20:25:26.820Z,4.50
2023-05-11T20:27:53.702Z,5.78
2023-05-11T20:30:20.913Z,6.80
2023-05-11T20:35:18.333Z,5.50
2023-05-11T20:37:45.338Z,6.40
2023-05-11T20:40:13.260Z,7.25
2023-05-11T20:42:41.984Z,7.68
2023-05-11T20:45:09.923Z,7.35
2023-05-11T20:47:37.157Z,8.50
2023-05-11T20:50:05.046Z,7.35
2023-05-11T20:52:32.064Z,8.00
2023-05-11T20:54:58.963Z,7.65
2023-05-11T20:57:25.968Z,9.00
2023-05-11T21:02:24.257Z,9.38
2023-05-11T21:04:51.158Z,6.47
2023-05-11T21:07:18.277Z,7.95
2023-05-11T21:09:45.330Z,5.45
2023-05-11T21:12:12.285Z,6.95
2023-05-11T21:14:39.216Z,6.38
2023-05-11T21:17:07.571Z,9.05
2023-05-11T21:19:34.533Z,8.00
2023-05-11T21:22:01.451Z,6.57
2023-05-11T21:24:28.567Z,7.72
2023-05-11T21:26:55.852Z,6.55
2023-05-11T21:29:22.811Z,6.22
2023-05-11T21:31:49.836Z,6.53
2023-05-11T21:34:18.234Z,6.38
2023-05-11T21:36:45.695Z,5.95
2023-05-11T21:39:15.624Z,8.10
2023-05-11T21:41:42.608Z,6.25
2023-05-11T21:44:09.567Z,6.57
2023-05-11T21:46:36.468Z,4.22
2023-05-11T21:49:03.614Z,5.60
2023-05-11T21:51:33.032Z,5.32
2023-05-11T21:54:00.448Z,3.80
2023-05-11T21:56:27.345Z,5.47
2023-05-11T21:58:54.252Z,3.75
2023-05-11T22:01:21.586Z,9.30
2023-05-11T22:03:48.678Z,8.45
2023-05-11T22:06:15.908Z,4.38
2023-05-11T22:08:44.748Z,7.88
2023-05-11T22:11:11.676Z,6.80
2023-05-11T22:13:38.787Z,5.88
2023-05-11T22:16:06.476Z,7.72
2023-05-11T22:18:33.518Z,7.40
2023-05-11T22:21:00.401Z,6.63
2023-05-11T22:23:27.315Z,6.05
2023-05-11T22:25:55.754Z,6.22
2023-05-11T22:28:23.096Z,6.28
2023-05-11T22:30:50.014Z,6.90
2023-05-11T22:33:16.945Z,7.25
2023-05-11T22:35:44.028Z,13.13
2023-05-11T22:38:11.364Z,7.32
2023-05-11T22:40:38.322Z,6.07
2023-05-11T22:43:06.600Z,9.13
2023-05-11T22:45:33.561Z,7.80
2023-05-11T22:48:00.611Z,9.02
2023-05-11T22:50:28.093Z,7.38
2023-05-11T22:52:55.247Z,10.07
2023-05-11T22:55:22.941Z,7.97
2023-05-11T22:57:49.965Z,10.52
2023-05-11T23:00:19.273Z,8.07
2023-05-11T23:02:46.542Z,11.23
2023-05-11T23:05:13.789Z,7.28
2023-05-11T23:07:40.752Z,8.45
2023-05-11T23:10:08.164Z,8.27
2023-05-11T23:12:35.137Z,7.22
2023-05-11T23:15:02.146Z,7.68
2023-05-11T23:17:30.587Z,8.25
2023-05-11T23:19:57.522Z,8.82
2023-05-11T23:22:24.561Z,5.75
2023-05-11T23:24:52.010Z,8.45
2023-05-11T23:27:18.978Z,8.43
2023-05-11T23:29:45.931Z,10.10
2023-05-11T23:32:12.843Z,9.88
2023-05-11T23:34:41.208Z,7.28
2023-05-11T23:37:08.714Z,7.60
2023-05-11T23:39:35.609Z,9.25
2023-05-11T23:42:04.264Z,7.20
2023-05-11T23:44:31.589Z,7.88
2023-05-11T23:46:58.559Z,7.07
2023-05-11T23:49:26.022Z,7.68
2023-05-11T23:51:54.770Z,7.35
2023-05-11T23:54:21.728Z,9.90
2023-05-11T23:56:48.667Z,7.28
2023-05-11T23:59:15.584Z,7.72
